Time;durP1;ratioP1;P1;durP2;ratioP2;P2;SDS_P1;SDS_P2;PMS_P1;PMS_P2;Temp;Humidity;BMP_temperature;BMP_pressure;BME280_temperature;BME280_humidity;BME280_pressure;Samples;Min_cycle;Max_cycle;Signal;HPM_P1;HPM_P2
2022/10/28 00:01:18;;;;;;;32.65;18.88;;;21.90;62.90;;;;;;5075154;28;20020;-80
2022/10/28 00:03:50;;;;;;;32.45;19.42;;;21.90;62.90;;;;;;5056500;28;20421;-85
2022/10/28 00:06:22;;;;;;;33.08;18.80;;;21.80;62.80;;;;;;5056932;28;20051;-80
2022/10/28 00:08:48;;;;;;;33.42;21.15;;;21.80;63.00;;;;;;5054725;28;20023;-80
2022/10/28 00:11:17;;;;;;;32.35;19.45;;;21.80;62.90;;;;;;5071436;28;20048;-80
2022/10/28 00:13:44;;;;;;;36.78;23.25;;;21.80;63.00;;;;;;5073729;28;20012;-79
2022/10/28 00:16:14;;;;;;;39.75;21.15;;;21.90;62.80;;;;;;5073858;28;20024;-79
2022/10/28 00:18:40;;;;;;;33.90;19.55;;;21.90;62.60;;;;;;5056448;28;20416;-79
2022/10/28 00:21:14;;;;;;;41.72;20.70;;;22.00;62.50;;;;;;5053252;28;20024;-79
2022/10/28 00:23:40;;;;;;;35.05;19.27;;;21.80;63.30;;;;;;5053976;28;20013;-80
2022/10/28 00:26:14;;;;;;;37.00;21.08;;;21.70;63.20;;;;;;5054126;28;20033;-78
2022/10/28 00:28:47;;;;;;;40.92;22.02;;;21.50;64.00;;;;;;5053476;28;20017;-79
2022/10/28 00:31:15;;;;;;;39.17;21.98;;;21.40;64.20;;;;;;5037000;28;20367;-80
2022/10/28 00:33:40;;;;;;;39.70;20.70;;;21.50;64.00;;;;;;5052972;28;20013;-78
2022/10/28 00:36:12;;;;;;;40.45;21.40;;;21.60;63.60;;;;;;5054261;28;20431;-79
2022/10/28 00:38:39;;;;;;;33.88;19.58;;;21.60;63.80;;;;;;5054391;28;20104;-79
2022/10/28 00:41:05;;;;;;;34.28;19.25;;;21.50;63.50;;;;;;5052827;28;20017;-80
2022/10/28 00:43:46;;;;;;;36.38;19.95;;;20.90;65.20;;;;;;5054379;28;20471;-79
2022/10/28 00:46:36;;;;;;;35.60;19.50;;;20.90;65.30;;;;;;5054090;28;20032;-77
2022/10/28 00:49:24;;;;;;;39.95;21.20;;;20.60;65.80;;;;;;5062262;28;20348;-80
2022/10/28 00:51:55;;;;;;;44.05;22.80;;;20.60;66.10;;;;;;5072435;28;20097;-80
2022/10/28 00:54:22;;;;;;;39.45;22.42;;;20.90;65.30;;;;;;5055539;28;20073;-80
2022/10/28 00:56:52;;;;;;;47.30;23.63;;;21.20;64.50;;;;;;5074565;28;20048;-80
2022/10/28 00:59:39;;;;;;;43.22;22.60;;;21.50;64.00;;;;;;5072035;28;20017;-79
2022/10/28 01:02:05;;;;;;;40.15;22.35;;;21.70;63.70;;;;;;5072336;28;20024;-79
2022/10/28 01:04:31;;;;;;;41.72;21.58;;;21.70;63.20;;;;;;5054365;28;20066;-80
2022/10/28 01:06:58;;;;;;;41.47;22.00;;;21.70;63.50;;;;;;5055014;28;20032;-79
2022/10/28 01:09:24;;;;;;;40.17;22.30;;;21.70;63.60;;;;;;5071876;28;20040;-79
2022/10/28 01:12:10;;;;;;;38.28;20.17;;;21.70;63.60;;;;;;5054133;28;20056;-79
2022/10/28 01:14:38;;;;;;;41.75;19.80;;;21.10;64.20;;;;;;5072598;28;20032;-79
2022/10/28 01:17:34;;;;;;;36.63;19.58;;;20.70;66.10;;;;;;5052702;28;20051;-80
2022/10/28 01:20:34;;;;;;;33.58;19.65;;;20.80;65.40;;;;;;5072008;28;20463;-81
2022/10/28 01:23:34;;;;;;;33.05;19.60;;;20.00;67.10;;;;;;5072109;28;20028;-80
2022/10/28 01:26:25;;;;;;;31.58;19.58;;;19.20;69.60;;;;;;5055126;28;20553;-80
2022/10/28 01:29:12;;;;;;;32.88;18.83;;;18.50;71.60;;;;;;5041283;28;20021;-80
2022/10/28 01:32:02;;;;;;;32.28;18.13;;;18.30;72.70;;;;;;5072122;28;20040;-80
2022/10/28 01:34:36;;;;;;;31.35;18.13;;;18.60;72.40;;;;;;5072866;28;20020;-78
2022/10/28 01:37:21;;;;;;;32.10;19.15;;;19.10;71.40;;;;;;5053366;28;20048;-78
2022/10/28 01:40:07;;;;;;;29.83;17.77;;;19.60;69.70;;;;;;5053795;28;20427;-79
2022/10/28 01:43:07;;;;;;;33.78;18.98;;;20.00;68.40;;;;;;5066903;28;20020;-80
2022/10/28 01:46:01;;;;;;;37.30;19.75;;;20.20;67.60;;;;;;5050069;28;20032;-79
2022/10/28 01:48:40;;;;;;;34.13;17.90;;;20.50;66.70;;;;;;5065189;28;20133;-78
2022/10/28 01:51:17;;;;;;;35.85;19.27;;;20.70;66.70;;;;;;5072485;28;20024;-79
2022/10/28 01:53:46;;;;;;;30.95;18.52;;;20.50;67.10;;;;;;5073263;28;20028;-79
2022/10/28 01:56:18;;;;;;;30.25;17.33;;;20.30;67.10;;;;;;5072030;28;20138;-79
2022/10/28 01:58:44;;;;;;;31.95;17.60;;;20.10;67.10;;;;;;5072026;28;20032;-78
2022/10/28 02:01:11;;;;;;;31.90;17.13;;;20.00;67.70;;;;;;5072426;28;20035;-79
2022/10/28 02:03:37;;;;;;;30.80;16.85;;;19.50;69.20;;;;;;5054055;28;20360;-79
2022/10/28 02:06:06;;;;;;;29.50;16.45;;;19.50;69.60;;;;;;5069786;28;20039;-78
2022/10/28 02:08:43;;;;;;;31.02;17.13;;;19.50;69.10;;;;;;5070640;28;20016;-79
2022/10/28 02:11:24;;;;;;;30.15;16.35;;;19.40;69.40;;;;;;5054094;28;20024;-78
2022/10/28 02:13:52;;;;;;;35.00;18.30;;;19.50;69.20;;;;;;5053288;28;20074;-78
2022/10/28 02:16:42;;;;;;;34.75;17.92;;;19.80;68.80;;;;;;5071460;28;20450;-79
2022/10/28 02:19:36;;;;;;;33.63;17.85;;;20.20;67.40;;;;;;5071082;28;20358;-78
2022/10/28 02:22:19;;;;;;;32.47;16.95;;;20.70;66.40;;;;;;5053470;28;20123;-78
2022/10/28 02:25:04;;;;;;;36.90;18.27;;;20.70;66.00;;;;;;5069009;28;20027;-79
2022/10/28 02:28:01;;;;;;;28.25;16.88;;;20.50;66.90;;;;;;5037508;28;20131;-78
2022/10/28 02:30:33;;;;;;;30.88;17.75;;;20.20;66.90;;;;;;5063748;28;20056;-78
2022/10/28 02:33:02;;;;;;;35.15;18.52;;;20.20;67.60;;;;;;5071259;28;20466;-79
2022/10/28 02:35:45;;;;;;;30.42;17.88;;;20.30;67.70;;;;;;5054579;28;20066;-78
2022/10/28 02:38:17;;;;;;;33.80;17.95;;;20.10;67.40;;;;;;5055237;28;20020;-78
2022/10/28 02:40:49;;;;;;;34.72;17.85;;;20.30;67.20;;;;;;5054819;28;20017;-79
2022/10/28 02:43:16;;;;;;;36.58;19.70;;;20.10;67.80;;;;;;5071108;28;20467;-79
2022/10/28 02:45:46;;;;;;;39.42;20.10;;;20.10;68.00;;;;;;5046266;28;20045;-79
2022/10/28 02:48:23;;;;;;;38.97;19.63;;;20.50;67.00;;;;;;5036688;28;20033;-79
2022/10/28 02:51:05;;;;;;;35.90;19.20;;;20.90;65.70;;;;;;5056606;28;20490;-79
2022/10/28 02:53:38;;;;;;;31.02;18.00;;;21.30;64.80;;;;;;5056631;28;20029;-79
2022/10/28 02:56:07;;;;;;;36.20;19.02;;;21.00;65.10;;;;;;5073320;28;20048;-79
2022/10/28 02:58:39;;;;;;;32.40;18.80;;;20.60;66.00;;;;;;5058016;28;20036;-79
2022/10/28 03:01:06;;;;;;;38.25;19.90;;;20.40;67.10;;;;;;5075885;28;20395;-79
2022/10/28 03:03:31;;;;;;;39.53;20.73;;;20.70;66.50;;;;;;5075039;28;20081;-80
2022/10/28 03:05:58;;;;;;;34.35;18.67;;;21.00;65.80;;;;;;5074797;28;20028;-79
2022/10/28 03:08:24;;;;;;;34.10;18.83;;;21.20;64.70;;;;;;5075069;28;20040;-78
2022/10/28 03:10:50;;;;;;;36.30;19.40;;;21.10;64.80;;;;;;5072700;28;20039;-79
2022/10/28 03:13:15;;;;;;;45.83;21.10;;;20.60;66.60;;;;;;5057638;28;20024;-79
2022/10/28 03:15:41;;;;;;;41.45;20.50;;;20.80;66.30;;;;;;5055758;28;20021;-78
2022/10/28 03:18:07;;;;;;;37.10;18.30;;;21.10;65.40;;;;;;5072919;28;20051;-80
2022/10/28 03:20:33;;;;;;;42.22;20.42;;;21.40;64.80;;;;;;5055877;28;20094;-79
2022/10/28 03:22:58;;;;;;;41.85;20.50;;;21.60;64.30;;;;;;5074582;28;20028;-79
2022/10/28 03:25:24;;;;;;;41.13;20.10;;;21.80;63.60;;;;;;5073249;28;20397;-80
2022/10/28 03:27:49;;;;;;;40.22;20.02;;;21.90;63.20;;;;;;5074466;28;20048;-79
2022/10/28 03:30:17;;;;;;;40.65;19.80;;;21.90;63.60;;;;;;5055859;28;20020;-77
2022/10/28 03:32:43;;;;;;;42.83;20.23;;;21.70;63.60;;;;;;5073909;28;20066;-79
2022/10/28 03:35:09;;;;;;;44.88;22.13;;;21.90;63.50;;;;;;5054991;28;20024;-80
2022/10/28 03:37:35;;;;;;;43.78;21.25;;;21.90;63.20;;;;;;5074430;28;20031;-79
2022/10/28 03:40:01;;;;;;;45.83;22.60;;;21.80;63.60;;;;;;5073636;28;20025;-79
2022/10/28 03:42:28;;;;;;;48.28;22.23;;;21.80;63.50;;;;;;5057010;28;20024;-80
2022/10/28 03:44:53;;;;;;;45.38;21.55;;;21.90;63.10;;;;;;5074046;28;20553;-79
2022/10/28 03:47:19;;;;;;;38.85;19.40;;;22.00;63.10;;;;;;5057219;28;20482;-80
2022/10/28 03:49:45;;;;;;;36.35;18.00;;;21.90;63.10;;;;;;5072939;28;20165;-80
2022/10/28 03:52:11;;;;;;;34.30;17.58;;;22.00;62.80;;;;;;5055724;28;20549;-79
2022/10/28 03:54:36;;;;;;;34.75;17.55;;;22.00;62.60;;;;;;5056567;28;20414;-80
2022/10/28 03:57:02;;;;;;;36.90;17.52;;;22.00;62.60;;;;;;5072208;28;20463;-80
2022/10/28 03:59:28;;;;;;;37.70;17.35;;;21.90;62.80;;;;;;5055834;28;20024;-79
2022/10/28 04:01:53;;;;;;;32.35;16.20;;;21.80;63.30;;;;;;5073402;28;20348;-79
2022/10/28 04:04:19;;;;;;;30.02;15.80;;;21.60;63.00;;;;;;5051377;28;20460;-79
2022/10/28 04:06:45;;;;;;;31.48;15.95;;;20.80;65.60;;;;;;5037014;28;20044;-80
2022/10/28 04:09:10;;;;;;;35.92;16.75;;;20.30;66.70;;;;;;5055177;28;20021;-80
2022/10/28 04:11:36;;;;;;;36.85;17.25;;;20.50;66.30;;;;;;5056371;28;20050;-79
2022/10/28 04:14:01;;;;;;;38.45;19.42;;;20.70;65.80;;;;;;5074351;28;20024;-79
2022/10/28 04:16:27;;;;;;;44.17;20.85;;;20.50;66.50;;;;;;5074680;28;20052;-79
2022/10/28 04:18:53;;;;;;;35.75;19.30;;;20.60;66.30;;;;;;5072947;28;20021;-79
2022/10/28 04:21:18;;;;;;;40.25;21.00;;;20.40;66.60;;;;;;5074597;28;20024;-79
2022/10/28 04:23:44;;;;;;;43.80;19.88;;;20.10;67.50;;;;;;5074937;28;20020;-80
2022/10/28 04:26:10;;;;;;;45.50;21.30;;;20.00;67.80;;;;;;5073273;28;20031;-79
2022/10/28 04:28:35;;;;;;;33.55;18.67;;;20.00;68.40;;;;;;5057086;28;20070;-80
2022/10/28 04:31:01;;;;;;;37.55;19.02;;;19.80;68.20;;;;;;5074547;28;20025;-79
2022/10/28 04:33:27;;;;;;;36.33;19.65;;;19.60;69.10;;;;;;5056823;28;20020;-85
2022/10/28 04:35:53;;;;;;;36.88;18.83;;;19.30;69.20;;;;;;5056576;28;20032;-78
2022/10/28 04:38:19;;;;;;;38.90;19.27;;;18.80;70.70;;;;;;5056176;28;20069;-78
2022/10/28 04:40:48;;;;;;;37.95;19.23;;;18.60;71.60;;;;;;5063740;28;20024;-78
2022/10/28 04:43:14;;;;;;;37.83;19.13;;;18.80;71.70;;;;;;5072041;28;20020;-79
2022/10/28 04:45:41;;;;;;;39.97;19.08;;;19.10;70.70;;;;;;5074118;28;20103;-80
2022/10/28 04:48:09;;;;;;;37.65;19.20;;;19.20;70.60;;;;;;5054923;28;20133;-79
2022/10/28 04:50:35;;;;;;;34.33;17.38;;;19.20;70.50;;;;;;5055122;28;20025;-78
2022/10/28 04:53:00;;;;;;;33.38;17.38;;;19.30;70.00;;;;;;5071577;28;20368;-78
2022/10/28 04:55:26;;;;;;;36.28;18.50;;;19.40;69.50;;;;;;5051997;28;20025;-78
2022/10/28 04:57:57;;;;;;;41.72;21.13;;;19.50;69.70;;;;;;5060714;28;20025;-79
2022/10/28 05:00:23;;;;;;;;;;;19.50;70.10;;;;;;5070709;28;20105;-79
2022/10/28 05:02:49;;;;;;;47.25;20.55;;;19.80;69.50;;;;;;5049702;28;19928;-78
2022/10/28 05:05:15;;;;;;;38.95;19.52;;;20.20;68.10;;;;;;5070184;28;20016;-78
2022/10/28 05:07:41;;;;;;;40.00;19.30;;;20.40;67.00;;;;;;5054844;28;20379;-78
2022/10/28 05:10:07;;;;;;;40.63;20.65;;;20.20;67.40;;;;;;5055084;28;20798;-78
2022/10/28 05:12:33;;;;;;;47.13;22.70;;;20.20;68.30;;;;;;5071258;28;20055;-79
2022/10/28 05:14:58;;;;;;;51.75;22.80;;;20.50;67.30;;;;;;5061954;28;20108;-77
2022/10/28 05:17:24;;;;;;;52.77;23.37;;;20.80;66.50;;;;;;4704891;28;9999897;-77
2022/10/28 05:19:50;;;;;;;53.50;24.70;;;21.10;65.80;;;;;;5067630;28;20648;-77
2022/10/28 05:22:16;;;;;;;45.42;22.23;;;21.20;65.30;;;;;;5069130;28;20020;-77
2022/10/28 05:24:42;;;;;;;43.75;22.70;;;21.20;65.20;;;;;;5068640;28;20024;-78
2022/10/28 05:27:08;;;;;;;47.55;22.30;;;20.80;66.20;;;;;;5066296;28;20033;-77
2022/10/28 05:29:34;;;;;;;50.75;22.90;;;20.50;66.90;;;;;;5062455;28;20013;-77
2022/10/28 05:32:00;;;;;;;55.95;23.77;;;20.60;66.90;;;;;;5041767;28;20079;-77
2022/10/28 05:34:25;;;;;;;51.95;23.52;;;20.80;66.50;;;;;;5064782;28;20017;-77
2022/10/28 05:36:51;;;;;;;55.30;22.65;;;21.00;65.90;;;;;;5065468;28;20029;-77
2022/10/28 05:39:17;;;;;;;60.38;24.55;;;21.20;65.60;;;;;;5056711;28;20101;-78
2022/10/28 05:41:43;;;;;;;50.35;22.88;;;21.30;65.20;;;;;;5054979;28;20090;-78
2022/10/28 05:44:08;;;;;;;62.80;24.25;;;21.40;64.90;;;;;;5069244;28;20455;-78
2022/10/28 05:46:34;;;;;;;47.47;21.20;;;21.40;64.80;;;;;;5044311;28;20039;-78
2022/10/28 05:48:59;;;;;;;59.45;23.77;;;21.20;65.10;;;;;;5059768;28;20044;-79
2022/10/28 05:51:25;;;;;;;55.53;23.75;;;21.00;66.00;;;;;;5070990;28;20150;-79
2022/10/28 05:53:51;;;;;;;59.72;23.90;;;21.10;65.70;;;;;;5071587;28;20033;-79
2022/10/28 05:56:17;;;;;;;65.68;24.05;;;21.30;65.20;;;;;;5071420;28;20023;-79
2022/10/28 05:58:43;;;;;;;48.05;22.42;;;21.40;65.00;;;;;;5071632;28;20035;-79
2022/10/28 06:01:09;;;;;;;52.22;23.00;;;21.10;64.80;;;;;;5070295;28;20017;-79
2022/10/28 06:03:34;;;;;;;54.22;21.67;;;20.00;68.50;;;;;;5070093;28;20020;-80
2022/10/28 06:06:00;;;;;;;53.22;21.30;;;19.90;69.30;;;;;;5069501;28;20032;-79
2022/10/28 06:08:26;;;;;;;56.08;22.48;;;20.00;69.10;;;;;;5053575;28;20566;-79
2022/10/28 06:10:53;;;;;;;56.90;21.85;;;20.30;68.00;;;;;;5053123;28;20024;-79
2022/10/28 06:13:19;;;;;;;55.42;21.55;;;20.70;67.30;;;;;;5071208;28;20035;-79
2022/10/28 06:15:53;;;;;;;48.30;20.88;;;20.90;66.40;;;;;;5071174;28;20371;-79
2022/10/28 06:18:20;;;;;;;65.60;22.13;;;21.10;65.90;;;;;;5071443;28;20048;-79
2022/10/28 06:20:57;;;;;;;49.58;21.23;;;21.30;65.30;;;;;;5071997;28;20439;-79
2022/10/28 06:23:23;;;;;;;48.88;20.30;;;21.00;66.30;;;;;;5054779;28;20020;-79
2022/10/28 06:25:51;;;;;;;45.38;19.75;;;20.80;66.70;;;;;;5053527;28;20112;-79
2022/10/28 06:28:17;;;;;;;55.15;21.77;;;20.70;67.10;;;;;;5054176;28;20020;-79
2022/10/28 06:30:42;;;;;;;49.00;21.33;;;20.80;66.80;;;;;;5052303;28;20074;-79
2022/10/28 06:33:08;;;;;;;52.55;21.10;;;21.00;66.50;;;;;;5073043;28;20031;-80
2022/10/28 06:35:33;;;;;;;45.22;19.77;;;21.10;66.00;;;;;;5053553;28;20491;-80
2022/10/28 06:37:59;;;;;;;52.97;19.95;;;21.30;65.50;;;;;;5072715;28;20508;-80
2022/10/28 06:40:26;;;;;;;40.25;18.20;;;21.30;65.60;;;;;;5072592;28;20025;-83
2022/10/28 06:43:04;;;;;;;50.38;19.85;;;21.00;66.10;;;;;;5054182;28;20054;-85
2022/10/28 06:45:32;;;;;;;42.13;17.85;;;20.70;66.80;;;;;;5071159;28;20036;-80
2022/10/28 06:47:59;;;;;;;37.08;16.95;;;20.40;66.80;;;;;;5070621;28;20037;-80
2022/10/28 06:50:26;;;;;;;39.63;17.83;;;19.30;70.30;;;;;;5071509;28;20021;-80
2022/10/28 06:52:53;;;;;;;38.03;16.70;;;18.80;72.60;;;;;;5055891;28;20447;-80
2022/10/28 06:55:19;;;;;;;42.78;17.73;;;19.00;72.00;;;;;;5052191;28;20028;-79
2022/10/28 06:57:45;;;;;;;44.08;17.25;;;18.70;73.20;;;;;;5071224;28;20029;-78
2022/10/28 07:00:11;;;;;;;35.95;16.30;;;19.30;71.80;;;;;;5071199;28;20028;-79
2022/10/28 07:02:37;;;;;;;40.63;16.23;;;19.90;69.60;;;;;;5052574;28;20024;-80
2022/10/28 07:05:02;;;;;;;37.03;15.35;;;20.20;68.70;;;;;;5070018;28;20162;-80
2022/10/28 07:07:28;;;;;;;40.05;17.33;;;20.40;68.30;;;;;;5070624;28;20028;-81
2022/10/28 07:09:54;;;;;;;42.85;17.98;;;20.50;68.10;;;;;;5071380;28;20012;-81
2022/10/28 07:12:19;;;;;;;37.80;16.15;;;20.50;67.60;;;;;;5068625;28;20464;-80
2022/10/28 07:14:45;;;;;;;38.50;16.35;;;20.80;67.10;;;;;;5045083;28;20437;-82
2022/10/28 07:17:10;;;;;;;40.75;16.45;;;21.00;66.20;;;;;;5059152;28;20021;-81
2022/10/28 07:19:36;;;;;;;36.80;15.68;;;21.10;65.90;;;;;;5055408;28;20047;-79
2022/10/28 07:22:02;;;;;;;37.80;15.43;;;21.30;65.60;;;;;;5053967;28;20016;-78
2022/10/28 07:24:27;;;;;;;32.60;14.85;;;21.30;65.20;;;;;;5046549;28;20115;-79
2022/10/28 07:26:53;;;;;;;28.45;13.63;;;21.20;65.10;;;;;;5044467;28;20029;-79
2022/10/28 07:29:19;;;;;;;31.88;14.55;;;20.70;66.10;;;;;;5041882;28;20029;-80
2022/10/28 07:31:44;;;;;;;29.42;14.35;;;19.90;68.50;;;;;;5060959;28;20202;-80
2022/10/28 07:34:10;;;;;;;33.05;14.75;;;19.40;70.70;;;;;;5059995;28;20025;-78
2022/10/28 07:36:36;;;;;;;35.13;15.15;;;19.40;70.50;;;;;;5056692;28;20477;-81
2022/10/28 07:39:02;;;;;;;29.80;14.68;;;19.60;70.40;;;;;;4721217;28;9999719;-81
2022/10/28 07:41:27;;;;;;;32.47;15.10;;;19.40;70.40;;;;;;5068038;28;20021;-78
2022/10/28 07:43:53;;;;;;;26.23;12.80;;;19.40;71.00;;;;;;5074929;28;20027;-80
2022/10/28 07:46:19;;;;;;;29.40;13.82;;;19.90;69.30;;;;;;5075008;28;20468;-81
2022/10/28 07:48:45;;;;;;;30.55;14.35;;;20.30;68.50;;;;;;5074166;28;20040;-80
2022/10/28 07:51:13;;;;;;;25.92;13.43;;;20.60;67.40;;;;;;5057871;28;20032;-79
2022/10/28 07:53:39;;;;;;;33.65;15.68;;;21.00;66.20;;;;;;5075709;28;20025;-79
2022/10/28 07:56:08;;;;;;;43.63;19.83;;;20.90;66.80;;;;;;5057538;28;20066;-78
2022/10/28 07:58:35;;;;;;;49.40;22.02;;;21.00;66.30;;;;;;5074336;28;20047;-80
2022/10/28 08:01:02;;;;;;;53.75;25.10;;;21.00;65.90;;;;;;5075315;28;20107;-79
2022/10/28 08:03:28;;;;;;;41.45;19.20;;;21.20;66.10;;;;;;5075346;28;20023;-83
2022/10/28 08:06:05;;;;;;;32.35;15.32;;;20.80;66.30;;;;;;5056896;28;20024;-83
2022/10/28 08:08:31;;;;;;;33.10;15.38;;;20.90;66.20;;;;;;5055426;28;20375;-79
2022/10/28 08:10:57;;;;;;;35.53;15.55;;;20.90;66.70;;;;;;5046603;28;20020;-85
2022/10/28 08:13:22;;;;;;;36.55;16.95;;;21.00;66.30;;;;;;5057947;28;20038;-82
2022/10/28 08:15:54;;;;;;;46.17;20.98;;;21.00;66.30;;;;;;5055630;28;20017;-78
2022/10/28 08:18:21;;;;;;;41.10;20.02;;;21.00;66.70;;;;;;5055534;28;20070;-79
2022/10/28 08:20:48;;;;;;;45.83;19.70;;;20.70;67.50;;;;;;5065886;28;20074;-80
2022/10/28 08:23:14;;;;;;;39.33;16.10;;;20.50;68.20;;;;;;5074615;28;20034;-79
2022/10/28 08:25:50;;;;;;;30.67;14.40;;;20.40;67.40;;;;;;5056022;28;20083;-79
2022/10/28 08:28:16;;;;;;;32.63;15.90;;;20.00;68.80;;;;;;5070423;28;20154;-79
2022/10/28 08:30:42;;;;;;;33.75;17.17;;;19.60;70.40;;;;;;5051074;28;20032;-79
2022/10/28 08:33:08;;;;;;;34.33;15.55;;;19.60;70.50;;;;;;5065281;28;20025;-80
2022/10/28 08:35:36;;;;;;;43.75;17.70;;;20.00;69.60;;;;;;5065122;28;20032;-79
2022/10/28 08:38:03;;;;;;;44.38;18.40;;;20.50;68.20;;;;;;5073098;28;20363;-79
2022/10/28 08:40:42;;;;;;;39.47;17.85;;;20.90;67.20;;;;;;5046250;28;20025;-79
2022/10/28 08:43:34;;;;;;;42.38;20.77;;;21.10;66.50;;;;;;5055681;28;20025;-80
2022/10/28 08:46:21;;;;;;;34.88;15.93;;;20.90;66.30;;;;;;5036297;28;20029;-79
2022/10/28 08:48:47;;;;;;;34.85;16.85;;;19.80;69.00;;;;;;4703536;28;10000360;-79
2022/10/28 08:51:27;;;;;;;31.70;15.98;;;19.80;70.30;;;;;;5052359;28;20744;-79
2022/10/28 08:54:01;;;;;;;35.45;15.60;;;19.90;69.50;;;;;;5073759;28;20367;-78
2022/10/28 08:56:34;;;;;;;36.88;16.80;;;20.00;69.60;;;;;;5050510;28;20483;-79
2022/10/28 08:59:06;;;;;;;30.60;14.95;;;20.50;68.50;;;;;;5048732;28;20040;-77
2022/10/28 09:01:55;;;;;;;35.90;15.85;;;20.90;67.40;;;;;;5068055;28;20128;-79
2022/10/28 09:04:23;;;;;;;33.30;15.55;;;21.40;66.00;;;;;;5076828;28;20024;-79
2022/10/28 09:06:49;;;;;;;30.83;16.38;;;21.50;66.10;;;;;;5063809;28;20041;-77
2022/10/28 09:09:19;;;;;;;29.45;15.57;;;21.40;65.50;;;;;;5068908;28;20021;-78
2022/10/28 09:11:55;;;;;;;29.33;15.15;;;20.90;67.30;;;;;;5070256;28;20016;-76
2022/10/28 09:14:49;;;;;;;36.45;15.63;;;20.40;68.20;;;;;;5070806;28;20029;-81
2022/10/28 09:17:25;;;;;;;34.42;15.32;;;19.70;70.60;;;;;;5055537;28;20025;-82
2022/10/28 09:19:55;;;;;;;35.28;17.48;;;20.00;69.90;;;;;;5055977;28;20032;-80
2022/10/28 09:22:30;;;;;;;33.20;16.13;;;20.60;68.60;;;;;;5073199;28;20467;-81
2022/10/28 09:25:01;;;;;;;30.83;15.13;;;21.00;67.50;;;;;;5055374;28;20441;-78
2022/10/28 09:28:02;;;;;;;37.00;16.05;;;21.10;66.50;;;;;;5072971;28;20031;-80
2022/10/28 09:30:35;;;;;;;30.05;14.18;;;20.70;68.40;;;;;;5042817;28;20490;-79
2022/10/28 09:33:25;;;;;;;35.25;14.90;;;20.10;69.40;;;;;;5055280;28;20043;-79
2022/10/28 09:35:52;;;;;;;30.77;14.93;;;19.90;70.40;;;;;;5054234;28;20101;-80
2022/10/28 09:38:31;;;;;;;34.95;16.08;;;20.40;69.50;;;;;;5071489;28;20063;-79
2022/10/28 09:41:18;;;;;;;30.27;13.88;;;20.60;68.50;;;;;;5054064;28;20036;-80
2022/10/28 09:43:58;;;;;;;30.65;15.30;;;20.00;69.60;;;;;;5055770;28;20017;-82
2022/10/28 09:46:27;;;;;;;30.73;14.68;;;19.90;70.70;;;;;;5073034;28;20107;-78
2022/10/28 09:48:57;;;;;;;29.63;15.10;;;20.40;68.80;;;;;;5054960;28;20036;-77
2022/10/28 09:51:33;;;;;;;29.33;15.23;;;19.80;69.40;;;;;;5074013;28;20459;-78
2022/10/28 09:54:00;;;;;;;31.58;14.82;;;18.70;72.90;;;;;;5073079;28;20099;-78
2022/10/28 09:56:27;;;;;;;31.00;14.23;;;18.80;74.00;;;;;;5073527;28;20366;-78
2022/10/28 09:58:56;;;;;;;33.67;16.13;;;18.90;74.00;;;;;;5072588;28;20029;-79
2022/10/28 10:01:21;;;;;;;28.10;15.50;;;19.60;72.50;;;;;;5055178;28;20434;-79
2022/10/28 10:03:49;;;;;;;34.10;16.45;;;20.00;70.40;;;;;;5055384;28;20474;-79
2022/10/28 10:06:27;;;;;;;31.65;16.33;;;19.80;71.30;;;;;;5055009;28;20043;-79
2022/10/28 10:08:56;;;;;;;37.08;17.02;;;20.10;70.30;;;;;;5055242;28;20455;-83
2022/10/28 10:11:43;;;;;;;31.10;16.52;;;20.40;69.10;;;;;;5056230;28;20027;-81
2022/10/28 10:14:18;;;;;;;32.80;16.13;;;20.80;68.60;;;;;;5054721;28;20016;-80
2022/10/28 10:16:55;;;;;;;31.73;15.23;;;20.50;68.60;;;;;;5054839;28;20024;-82
2022/10/28 10:19:20;;;;;;;26.92;15.75;;;20.50;69.00;;;;;;5054614;28;20017;-80
2022/10/28 10:21:48;;;;;;;31.73;16.30;;;20.30;69.60;;;;;;5055004;28;20032;-82
2022/10/28 10:24:30;;;;;;;39.47;16.88;;;20.20;69.90;;;;;;5056316;28;20016;-81
2022/10/28 10:27:08;;;;;;;29.63;15.43;;;20.70;69.10;;;;;;5055317;28;20051;-80
2022/10/28 10:29:34;;;;;;;33.08;16.88;;;20.30;68.70;;;;;;5054915;28;20024;-78
2022/10/28 10:32:23;;;;;;;29.35;15.85;;;19.60;71.40;;;;;;5072577;28;20032;-78
2022/10/28 10:35:14;;;;;;;40.97;18.65;;;19.30;72.40;;;;;;5055173;28;20130;-79
2022/10/28 10:37:45;;;;;;;33.58;17.15;;;19.30;73.50;;;;;;5072781;28;20344;-79
2022/10/28 10:40:23;;;;;;;36.35;18.50;;;19.70;72.10;;;;;;5054769;28;20052;-79
2022/10/28 10:42:49;;;;;;;30.13;16.02;;;19.90;70.60;;;;;;5055350;28;20486;-89
2022/10/28 10:45:15;;;;;;;38.60;17.60;;;20.00;70.10;;;;;;5055365;28;20478;-79
2022/10/28 10:47:41;;;;;;;39.53;17.95;;;19.60;72.20;;;;;;5055368;28;20021;-79
2022/10/28 10:50:27;;;;;;;34.78;17.30;;;19.90;71.30;;;;;;5054760;28;20040;-83
2022/10/28 10:52:59;;;;;;;36.80;17.23;;;20.50;69.90;;;;;;5054776;28;20020;-79
2022/10/28 10:55:38;;;;;;;37.50;18.08;;;21.00;68.60;;;;;;5054707;28;20020;-80
2022/10/28 10:58:05;;;;;;;38.25;19.23;;;21.40;67.30;;;;;;5054340;28;20063;-79
2022/10/28 11:00:43;;;;;;;38.72;18.85;;;21.20;67.90;;;;;;5072398;28;20035;-79
2022/10/28 11:03:24;;;;;;;41.80;18.20;;;21.30;67.30;;;;;;5054573;28;20032;-87
2022/10/28 11:05:54;;;;;;;36.35;18.52;;;21.00;68.00;;;;;;4354250;28;10000248;-78
2022/10/28 11:08:26;;;;;;;;;;;21.10;67.70;;;;;;5072684;28;20021;-78
2022/10/28 11:11:13;;;;;;;38.88;19.23;;;21.20;67.30;;;;;;5075043;28;19900;-83
2022/10/28 11:13:40;;;;;;;47.33;22.10;;;20.80;68.40;;;;;;5058916;28;20078;-80
2022/10/28 11:16:16;;;;;;;40.58;20.33;;;20.70;69.30;;;;;;5075975;28;20021;-83
2022/10/28 11:18:44;;;;;;;39.03;19.33;;;20.50;69.50;;;;;;5058398;28;20112;-80
2022/10/28 11:21:41;;;;;;;53.95;34.05;;;20.90;68.40;;;;;;5076242;28;20013;-79
2022/10/28 11:24:25;;;;;;;40.97;22.85;;;21.20;67.70;;;;;;4994754;28;20039;-80
2022/10/28 11:27:17;;;;;;;43.80;24.83;;;20.80;68.50;;;;;;4994327;28;20121;-78
2022/10/28 11:29:44;;;;;;;45.58;25.95;;;20.30;69.60;;;;;;4995125;28;20210;-77
2022/10/28 11:32:25;;;;;;;59.88;31.00;;;20.00;70.30;;;;;;4978908;28;20049;-79
2022/10/28 11:35:08;;;;;;;;;;;19.90;71.30;;;;;;4995924;28;20026;-78
2022/10/28 11:38:22;;;;;;;38.88;18.85;;;20.40;69.60;;;;;;4978304;28;20383;-81
2022/10/28 11:41:00;;;;;;;37.67;19.83;;;20.90;68.60;;;;;;4937726;28;20039;-78
2022/10/28 11:43:44;;;;;;;46.60;25.88;;;20.90;68.30;;;;;;4936384;29;20430;-79
2022/10/28 11:46:27;;;;;;;71.20;36.00;;;20.80;68.00;;;;;;4936825;29;20043;-78
2022/10/28 11:48:56;;;;;;;49.03;23.33;;;20.20;69.80;;;;;;4935882;29;20040;-79
2022/10/28 11:51:30;;;;;;;47.50;22.52;;;20.40;70.10;;;;;;4936473;29;20509;-78
2022/10/28 11:54:21;;;;;;;46.75;22.60;;;20.70;69.30;;;;;;4935807;29;20031;-79
2022/10/28 11:57:04;;;;;;;44.90;21.98;;;20.90;69.10;;;;;;4936335;29;20423;-79
2022/10/28 11:59:55;;;;;;;43.80;22.27;;;20.90;68.60;;;;;;4936986;29;20506;-81
2022/10/28 12:02:29;;;;;;;;;;;21.10;67.80;;;;;;4995478;28;20134;-78
2022/10/28 12:05:01;;;;;;;42.13;23.38;;;21.30;66.70;;;;;;4997053;28;19928;-79
2022/10/28 12:08:00;;;;;;;46.10;22.63;;;20.90;68.50;;;;;;4997073;28;20508;-82
2022/10/28 12:10:51;;;;;;;40.95;21.65;;;20.80;68.50;;;;;;4920785;29;20134;-78
2022/10/28 12:13:29;;;;;;;43.00;21.33;;;21.00;68.60;;;;;;4937197;29;20051;-78
2022/10/28 12:16:06;;;;;;;44.70;24.13;;;21.30;67.50;;;;;;4936620;29;20036;-78
2022/10/28 12:18:51;;;;;;;45.20;23.40;;;21.10;67.90;;;;;;4936287;29;20043;-80
2022/10/28 12:21:26;;;;;;;44.20;21.92;;;20.90;67.90;;;;;;4954538;28;20042;-79
2022/10/28 12:23:54;;;;;;;47.67;24.70;;;21.10;68.20;;;;;;4955175;29;20051;-78
2022/10/28 12:26:23;;;;;;;46.28;25.23;;;20.80;68.70;;;;;;4956231;29;20031;-78
2022/10/28 12:28:56;;;;;;;49.38;28.92;;;20.20;70.10;;;;;;4940667;28;20130;-78
2022/10/28 12:31:41;;;;;;;50.63;27.77;;;20.10;70.90;;;;;;4954996;29;20123;-79
2022/10/28 12:34:21;;;;;;;43.15;24.25;;;20.20;71.30;;;;;;4954442;29;20027;-80
2022/10/28 12:36:56;;;;;;;39.60;23.08;;;20.30;70.30;;;;;;4954809;29;20491;-77
2022/10/28 12:39:30;;;;;;;54.08;26.48;;;20.00;70.40;;;;;;4955157;29;20363;-78
2022/10/28 12:42:01;;;;;;;44.72;24.08;;;19.80;71.90;;;;;;4954631;29;20585;-81
2022/10/28 12:44:30;;;;;;;49.92;25.70;;;19.60;72.20;;;;;;4954155;29;20027;-79
2022/10/28 12:47:10;;;;;;;46.33;26.38;;;19.70;72.50;;;;;;4998276;28;20483;-81
2022/10/28 12:49:53;;;;;;;53.47;29.92;;;19.90;71.90;;;;;;5074291;28;20055;-79
2022/10/28 12:52:35;;;;;;;43.85;23.80;;;19.90;71.40;;;;;;5074409;28;20073;-78